Hosford, FL

6:40 AM EDT on March 27, 2015 (GMT -0400)
Panama City Tyndall AFB | | Change Station
CLOSE
Current Station
Airport
Location: Panama City Tyndall AFB,
Elevation: 16 ft
Nearby Weather Stations

Elev 16 ft 30.07 °N, 85.58 °W | Updated 27 minutes ago

Overcast
Overcast
66 °F
Feels Like 66 °F
N
13
Wind Variable Wind from WNW

Today
High -- | Low -- °F
--% Chance of Precip.
Yesterday
High -- | Low -- °F
Precip. -- in
7:34 AM 7:54 PM
Waxing Crescent, 51% visible
Pressure 29.79 in
Visibility 10.0 miles
Clouds Few 1500 ft
Scattered Clouds 4700 ft
Dew Point 63 °F
Humidity 88%
Rainfall 0.00 in
Snow Depth Not available.
UV 0 out of 12
Pollen 9.70 out of 12
Air Quality Not available.
Flu Activity Not available.
SPECI KPAM 271013Z AUTO 29011KT 10SM -DZ FEW015 SCT047 19/17 A2979 RMK AO2 $

More Conditions Fewer Conditions

Pressure 29.79 in
Visibility 10.0 miles
Clouds Few 1500 ft
Scattered Clouds 4700 ft
Dew Point 63 °F
Humidity 88%
Rainfall 0.00 in
Snow Depth Not available.
UV 0 out of 12
Pollen 9.70 out of 12
Air Quality Not available.
Flu Activity Not available.
SPECI KPAM 271013Z AUTO 29011KT 10SM -DZ FEW015 SCT047 19/17 A2979 RMK AO2 $

More Conditions Fewer Conditions

10-Day Weather Forecast

Almanac

Astronomy

Mar. 27, 2015 Rise Set
Actual Time
Civil Twilight
Nautical Twilight
Astronomical Twilight
Moon
Length of Visible Light
Length of Day
Tomorrow will be .
, % of the Moon is Illuminated

Today's Extremes

State Highs State Lows

Community

WunderPhotos

Upload Photos

1,808,706 photos uploaded!

WunderBlogs® & News

Nearby

Air Quality

  Air Quality AQ Index Pollutant
Not available.

Snow Depth

Station Depth Elevation

Earthquake Activity

City Distance Mag. Time & Date
Minimum magnitude displayed is 2.5.

Coastal Water Temperatures

Place Temperature

Stations

Nearby Weather Stations

Station Location Temp. Windchill Dew Point Humidity Wind Precip. Elev Updated Type